createdAt,value
2022-08-18T00:02:06.310Z,22.02
2022-08-18T00:04:48.546Z,21.99
2022-08-18T00:07:21.408Z,22.12
2022-08-18T00:09:50.538Z,22.21
2022-08-18T00:12:25.550Z,22.10
2022-08-18T00:14:55.189Z,22.18
2022-08-18T00:17:24.042Z,22.19
2022-08-18T00:19:51.818Z,22.02
2022-08-18T00:22:21.462Z,21.77
2022-08-18T00:24:52.057Z,22.24
2022-08-18T00:27:26.142Z,22.69
2022-08-18T00:30:00.037Z,22.63
2022-08-18T00:32:34.408Z,22.22
2022-08-18T00:35:15.506Z,22.05
2022-08-18T00:37:44.106Z,22.13
2022-08-18T00:40:16.893Z,21.96
2022-08-18T00:42:49.117Z,21.71
2022-08-18T00:45:26.326Z,21.82
2022-08-18T00:47:55.102Z,21.92
2022-08-18T00:50:47.136Z,21.82
2022-08-18T00:53:24.763Z,21.68
2022-08-18T00:55:54.834Z,21.23
2022-08-18T00:58:34.458Z,21.21
2022-08-18T01:01:06.063Z,21.17
2022-08-18T01:03:36.557Z,21.47
2022-08-18T01:06:08.417Z,21.55
2022-08-18T01:08:36.577Z,21.53
2022-08-18T01:11:04.505Z,21.60
2022-08-18T01:13:35.608Z,21.93
2022-08-18T01:16:23.869Z,21.67
2022-08-18T01:19:10.657Z,21.75
2022-08-18T01:21:52.379Z,22.28
2022-08-18T01:24:45.547Z,22.30
2022-08-18T01:27:18.079Z,22.26
2022-08-18T01:29:48.181Z,22.84
2022-08-18T01:32:21.477Z,23.08
2022-08-18T01:34:50.801Z,22.97
2022-08-18T01:37:20.895Z,22.87
2022-08-18T01:41:17.271Z,22.85
2022-08-18T01:42:38.126Z,23.16
2022-08-18T01:45:08.232Z,23.31
2022-08-18T01:47:47.085Z,22.99
2022-08-18T01:50:17.452Z,23.14
2022-08-18T01:52:45.661Z,23.17
2022-08-18T01:55:14.589Z,23.33
2022-08-18T01:57:45.396Z,23.37
2022-08-18T02:00:16.327Z,23.75
2022-08-18T02:02:44.715Z,23.67
2022-08-18T02:05:18.437Z,23.62
2022-08-18T02:07:46.718Z,23.30
2022-08-18T02:10:16.446Z,23.48
2022-08-18T02:12:44.488Z,23.85
2022-08-18T02:15:12.899Z,23.65
2022-08-18T02:17:45.693Z,23.49
2022-08-18T02:20:18.006Z,23.42
2022-08-18T02:22:46.682Z,23.68
2022-08-18T02:25:15.268Z,23.43
2022-08-18T02:27:44.159Z,23.43
2022-08-18T02:30:15.449Z,23.46
2022-08-18T02:32:43.666Z,24.08
2022-08-18T02:35:12.370Z,23.89
2022-08-18T02:37:42.253Z,23.48
2022-08-18T02:40:14.735Z,23.32
2022-08-18T02:42:44.448Z,23.31
2022-08-18T02:45:13.701Z,23.17
2022-08-18T02:47:42.998Z,23.06
2022-08-18T02:50:13.425Z,23.19
2022-08-18T02:52:41.521Z,23.42
2022-08-18T02:55:10.070Z,22.58
2022-08-18T02:57:46.067Z,23.04
2022-08-18T03:00:16.044Z,22.80
2022-08-18T03:02:51.816Z,23.34
2022-08-18T03:05:20.235Z,23.06
2022-08-18T03:07:48.484Z,23.02
2022-08-18T03:10:31.382Z,23.01
2022-08-18T03:13:02.561Z,22.32
2022-08-18T03:15:30.739Z,22.23
2022-08-18T03:17:58.848Z,22.49
2022-08-18T03:20:30.159Z,22.61
2022-08-18T03:22:59.759Z,22.39
2022-08-18T03:25:33.885Z,21.90
2022-08-18T03:28:04.015Z,22.06
2022-08-18T03:30:31.857Z,21.89
2022-08-18T03:32:59.967Z,21.91
2022-08-18T03:35:27.837Z,21.53
2022-08-18T03:37:59.356Z,21.00
2022-08-18T03:40:27.396Z,21.67
2022-08-18T03:42:55.528Z,21.75
2022-08-18T03:45:24.634Z,21.46
2022-08-18T03:47:53.473Z,21.90
2022-08-18T03:50:22.013Z,21.62
2022-08-18T03:52:49.845Z,21.59
2022-08-18T03:55:18.385Z,21.44
2022-08-18T03:57:46.917Z,21.78
2022-08-18T04:00:14.887Z,21.34
2022-08-18T04:02:42.964Z,21.55
2022-08-18T04:05:12.766Z,21.19
2022-08-18T04:07:43.025Z,21.58
2022-08-18T04:10:16.224Z,21.72
2022-08-18T04:12:47.486Z,21.58
2022-08-18T04:15:17.099Z,21.42
2022-08-18T04:17:56.213Z,21.66
2022-08-18T04:20:38.763Z,21.74
2022-08-18T04:23:43.392Z,22.17
2022-08-18T04:26:19.061Z,21.27
2022-08-18T04:28:47.281Z,21.59
2022-08-18T04:31:16.122Z,21.97
2022-08-18T04:33:44.363Z,21.79
2022-08-18T04:36:18.774Z,22.24
2022-08-18T04:38:49.661Z,22.88
2022-08-18T04:41:18.240Z,23.48
2022-08-18T04:43:49.930Z,23.28
2022-08-18T04:46:24.102Z,23.27
2022-08-18T04:48:59.042Z,23.37
2022-08-18T04:52:22.631Z,23.56
2022-08-18T04:54:17.630Z,23.95
2022-08-18T04:56:45.710Z,24.12
2022-08-18T04:59:14.482Z,24.37
2022-08-18T05:01:45.717Z,24.38
2022-08-18T05:04:16.531Z,24.57
2022-08-18T05:06:46.222Z,24.93
2022-08-18T05:09:16.601Z,25.33
2022-08-18T05:11:51.203Z,25.37
2022-08-18T05:14:20.262Z,25.77
2022-08-18T05:16:49.694Z,25.65
2022-08-18T05:19:23.425Z,26.04
2022-08-18T05:21:59.914Z,26.37
2022-08-18T05:24:37.038Z,26.10
2022-08-18T05:27:07.762Z,26.43
2022-08-18T05:29:41.503Z,26.94
2022-08-18T05:32:36.985Z,27.40
2022-08-18T05:35:12.839Z,27.17
2022-08-18T05:38:04.024Z,27.27
2022-08-18T05:40:32.045Z,27.40
2022-08-18T05:43:00.533Z,27.99
2022-08-18T05:45:28.559Z,27.99
2022-08-18T05:48:00.257Z,28.16
2022-08-18T05:50:29.882Z,28.31
2022-08-18T05:53:01.824Z,28.26
2022-08-18T05:55:55.882Z,28.20
2022-08-18T05:58:33.526Z,28.91
2022-08-18T06:01:09.193Z,29.01
2022-08-18T06:03:47.944Z,29.64
2022-08-18T06:06:20.414Z,29.86
2022-08-18T06:09:10.802Z,29.79
2022-08-18T06:11:38.774Z,29.98
2022-08-18T06:14:06.873Z,29.46
2022-08-18T06:17:03.472Z,30.18
2022-08-18T06:19:37.602Z,29.95
2022-08-18T06:22:20.681Z,30.01
2022-08-18T06:25:16.621Z,30.55
2022-08-18T06:27:51.766Z,30.66
2022-08-18T06:30:23.422Z,31.00
2022-08-18T06:33:35.152Z,30.92
2022-08-18T06:36:08.945Z,31.18
2022-08-18T06:38:46.102Z,30.98
2022-08-18T06:41:41.764Z,31.62
2022-08-18T06:44:36.942Z,31.49
2022-08-18T06:47:10.473Z,31.33
2022-08-18T06:50:02.964Z,32.05
2022-08-18T06:52:35.663Z,31.72
2022-08-18T06:55:08.526Z,32.20
2022-08-18T06:57:39.893Z,32.12
2022-08-18T07:00:24.008Z,32.39
2022-08-18T07:03:35.923Z,32.24
2022-08-18T07:06:21.924Z,32.24
2022-08-18T07:08:54.777Z,32.24
2022-08-18T07:11:33.577Z,31.86
2022-08-18T07:14:22.283Z,31.70
2022-08-18T07:16:59.166Z,32.84
2022-08-18T07:19:32.524Z,32.37
2022-08-18T07:22:18.830Z,32.64
2022-08-18T07:24:54.481Z,32.44
2022-08-18T07:27:29.703Z,32.60
2022-08-18T07:30:03.990Z,32.48
2022-08-18T07:32:46.122Z,33.44
2022-08-18T07:35:28.989Z,33.26
2022-08-18T07:38:44.505Z,32.67
2022-08-18T07:41:26.399Z,33.76
2022-08-18T07:44:04.021Z,33.62
2022-08-18T07:46:46.202Z,34.18
2022-08-18T07:49:25.025Z,34.21
2022-08-18T07:52:02.378Z,34.44
2022-08-18T07:54:51.061Z,34.78
2022-08-18T07:57:27.713Z,34.49
2022-08-18T08:00:20.619Z,34.46
2022-08-18T08:03:07.489Z,35.01
2022-08-18T08:06:13.849Z,35.92
2022-08-18T08:09:17.434Z,35.61
2022-08-18T08:12:06.171Z,35.91
2022-08-18T08:14:57.582Z,36.22
2022-08-18T08:17:36.411Z,36.81
2022-08-18T08:20:32.718Z,35.84
2022-08-18T08:23:16.070Z,36.11
2022-08-18T08:26:18.035Z,36.42
2022-08-18T08:29:05.689Z,36.46
2022-08-18T08:32:14.391Z,37.44
2022-08-18T08:35:49.232Z,36.99
2022-08-18T08:38:39.343Z,36.80
2022-08-18T08:41:11.530Z,36.88
2022-08-18T08:43:47.652Z,36.99
2022-08-18T08:46:25.974Z,37.83
2022-08-18T08:49:01.334Z,37.22
2022-08-18T08:51:36.576Z,37.73
2022-08-18T08:54:16.395Z,36.97
2022-08-18T08:56:51.605Z,37.69
2022-08-18T08:59:22.245Z,37.63
2022-08-18T09:01:58.958Z,37.23
2022-08-18T09:05:07.485Z,38.12
2022-08-18T09:08:03.252Z,37.41
2022-08-18T09:10:39.904Z,37.70
2022-08-18T09:13:29.151Z,37.51
2022-08-18T09:16:15.862Z,37.50
2022-08-18T09:18:55.471Z,37.77
2022-08-18T09:21:41.578Z,37.59
2022-08-18T09:24:27.574Z,37.79
2022-08-18T09:27:05.412Z,37.51
2022-08-18T09:29:43.983Z,37.77
2022-08-18T09:35:28.698Z,38.80
2022-08-18T09:38:28.291Z,38.37
2022-08-18T09:41:37.313Z,38.97
2022-08-18T09:47:04.729Z,38.91
2022-08-18T09:50:37.148Z,39.02
2022-08-18T09:52:39.956Z,38.28
2022-08-18T09:55:25.008Z,38.91
2022-08-18T09:58:30.819Z,39.62
2022-08-18T10:01:35.257Z,39.28
2022-08-18T10:04:21.715Z,39.64
2022-08-18T10:06:52.578Z,40.21
2022-08-18T10:13:18.766Z,39.28
2022-08-18T10:16:15.151Z,40.15
2022-08-18T10:18:58.339Z,40.71
2022-08-18T10:21:57.454Z,39.78
2022-08-18T10:24:36.457Z,39.39
2022-08-18T10:27:27.905Z,39.64
2022-08-18T10:29:58.413Z,39.48
2022-08-18T10:32:44.269Z,39.37
2022-08-18T10:35:56.187Z,39.60
2022-08-18T10:38:46.158Z,40.15
2022-08-18T10:41:34.376Z,40.21
2022-08-18T10:44:20.818Z,39.97
2022-08-18T10:46:53.626Z,39.34
2022-08-18T10:49:28.059Z,39.90
2022-08-18T10:52:24.299Z,40.70
2022-08-18T10:55:12.269Z,40.31
2022-08-18T10:58:20.079Z,39.78
2022-08-18T11:01:21.874Z,39.61
2022-08-18T11:04:13.775Z,40.33
2022-08-18T11:07:09.770Z,40.52
2022-08-18T11:10:28.033Z,40.11
2022-08-18T11:13:11.952Z,40.87
2022-08-18T11:15:50.689Z,39.70
2022-08-18T11:18:42.656Z,39.58
2022-08-18T11:21:27.746Z,39.40
2022-08-18T11:24:13.455Z,39.64
2022-08-18T11:26:45.568Z,40.35
2022-08-18T11:29:23.766Z,40.85
2022-08-18T11:32:18.007Z,40.33
2022-08-18T11:35:04.289Z,39.52
2022-08-18T11:37:51.275Z,40.78
2022-08-18T11:43:41.942Z,40.47
2022-08-18T11:46:27.931Z,40.53
2022-08-18T11:49:00.594Z,39.59
2022-08-18T11:51:32.615Z,39.54
2022-08-18T11:54:23.553Z,38.98
2022-08-18T11:56:53.458Z,39.17
2022-08-18T11:59:52.226Z,39.19
2022-08-18T12:02:18.917Z,39.56
2022-08-18T12:04:53.370Z,39.78
2022-08-18T12:07:33.845Z,39.68
2022-08-18T12:13:08.631Z,38.84
2022-08-18T12:21:15.854Z,39.24
2022-08-18T12:23:48.900Z,39.27
2022-08-18T12:26:38.475Z,39.52
2022-08-18T12:29:08.981Z,39.28
2022-08-18T12:31:42.524Z,39.46
2022-08-18T12:37:57.795Z,39.42
2022-08-18T12:40:06.247Z,39.56
2022-08-18T12:42:36.421Z,39.54
2022-08-18T12:45:05.478Z,39.35
2022-08-18T12:47:39.338Z,38.61
2022-08-18T12:50:10.626Z,38.33
2022-08-18T12:52:39.006Z,38.73
2022-08-18T12:55:21.361Z,38.12
2022-08-18T12:57:53.491Z,38.85
2022-08-18T13:03:10.625Z,39.30
2022-08-18T13:05:39.361Z,39.15
2022-08-18T13:08:13.210Z,38.87
2022-08-18T13:11:14.560Z,39.24
2022-08-18T13:13:43.436Z,39.20
2022-08-18T13:16:38.788Z,38.92
2022-08-18T13:19:10.897Z,39.55
2022-08-18T13:21:41.339Z,39.76
2022-08-18T13:24:12.677Z,39.53
2022-08-18T13:26:46.309Z,39.18
2022-08-18T13:29:17.902Z,39.69
2022-08-18T13:31:55.265Z,39.83
2022-08-18T13:34:25.680Z,40.20
2022-08-18T13:36:55.036Z,39.81
2022-08-18T13:39:24.810Z,39.36
2022-08-18T13:42:01.600Z,39.10
2022-08-18T13:44:53.235Z,38.50
2022-08-18T13:47:23.480Z,39.21
2022-08-18T13:49:58.063Z,39.04
2022-08-18T13:52:41.244Z,38.93
2022-08-18T13:55:17.514Z,39.36
2022-08-18T13:57:50.040Z,39.30
2022-08-18T14:00:29.535Z,39.56
2022-08-18T14:03:03.306Z,39.35
2022-08-18T14:05:36.697Z,38.38
2022-08-18T14:08:20.865Z,38.15
2022-08-18T14:10:51.687Z,38.36
2022-08-18T14:13:25.084Z,37.58
2022-08-18T14:15:55.994Z,38.56
2022-08-18T14:18:29.074Z,38.02
2022-08-18T14:21:22.941Z,38.29
2022-08-18T14:24:14.112Z,38.20
2022-08-18T14:26:50.042Z,37.92
2022-08-18T14:29:46.101Z,38.12
2022-08-18T14:32:07.675Z,37.78
2022-08-18T14:34:37.017Z,37.73
2022-08-18T14:37:05.651Z,38.33
2022-08-18T14:39:38.362Z,38.40
2022-08-18T14:42:06.617Z,38.11
2022-08-18T14:44:40.336Z,37.56
2022-08-18T14:47:09.546Z,37.43
2022-08-18T14:49:42.908Z,37.66
2022-08-18T14:52:16.316Z,38.21
2022-08-18T14:54:46.294Z,38.29
2022-08-18T14:59:53.707Z,37.69
2022-08-18T15:02:25.662Z,37.77
2022-08-18T15:04:56.223Z,38.25
2022-08-18T15:07:26.839Z,38.26
2022-08-18T15:10:15.622Z,38.44
2022-08-18T15:12:44.894Z,38.28
2022-08-18T15:15:15.976Z,37.40
2022-08-18T15:17:50.130Z,37.79
2022-08-18T15:20:28.591Z,36.92
2022-08-18T15:23:22.765Z,37.56
2022-08-18T15:25:56.945Z,38.03
2022-08-18T15:28:28.161Z,37.48
2022-08-18T15:33:51.177Z,37.40
2022-08-18T15:36:28.786Z,37.38
2022-08-18T15:38:59.888Z,37.50
2022-08-18T15:41:43.965Z,38.19
2022-08-18T15:44:15.019Z,37.97
2022-08-18T15:46:51.270Z,37.49
2022-08-18T15:49:23.038Z,37.62
2022-08-18T15:51:54.177Z,37.63
2022-08-18T15:54:25.367Z,37.69
2022-08-18T15:56:58.324Z,37.36
2022-08-18T15:59:38.933Z,37.40
2022-08-18T16:02:17.978Z,37.21
2022-08-18T16:04:49.584Z,37.45
2022-08-18T16:07:25.242Z,37.47
2022-08-18T16:10:18.204Z,36.92
2022-08-18T16:12:48.748Z,36.91
2022-08-18T16:15:22.548Z,37.51
2022-08-18T16:17:54.753Z,37.58
2022-08-18T16:20:24.473Z,37.30
2022-08-18T16:22:55.059Z,37.27
2022-08-18T16:25:24.668Z,37.00
2022-08-18T16:27:57.077Z,36.69
2022-08-18T16:30:31.106Z,36.76
2022-08-18T16:33:08.976Z,36.63
2022-08-18T16:35:38.250Z,36.62
2022-08-18T16:38:11.485Z,36.86
2022-08-18T16:40:42.492Z,36.87
2022-08-18T16:43:14.041Z,36.64
2022-08-18T16:45:43.419Z,36.51
2022-08-18T16:48:16.650Z,36.35
2022-08-18T16:50:52.143Z,36.12
2022-08-18T16:53:25.646Z,35.88
2022-08-18T16:56:15.633Z,35.63
2022-08-18T16:59:03.580Z,35.61
2022-08-18T17:01:54.847Z,35.13
2022-08-18T17:04:29.660Z,35.92
2022-08-18T17:06:58.823Z,34.68
2022-08-18T17:09:27.642Z,34.49
2022-08-18T17:11:56.165Z,34.77
2022-08-18T17:14:29.381Z,35.12
2022-08-18T17:17:00.025Z,35.19
2022-08-18T17:19:31.401Z,34.28
2022-08-18T17:22:04.598Z,34.62
2022-08-18T17:24:33.638Z,34.40
2022-08-18T17:27:24.850Z,33.90
2022-08-18T17:30:09.180Z,32.39
2022-08-18T17:32:43.033Z,31.79
2022-08-18T17:35:17.912Z,31.48
2022-08-18T17:38:05.692Z,32.05
2022-08-18T17:40:56.389Z,32.22
2022-08-18T17:43:33.272Z,31.92
2022-08-18T17:46:34.623Z,31.30
2022-08-18T17:49:46.322Z,31.22
2022-08-18T17:52:23.230Z,30.93
2022-08-18T17:54:52.578Z,30.14
2022-08-18T17:57:40.445Z,30.38
2022-08-18T18:00:17.727Z,30.23
2022-08-18T18:02:50.687Z,30.18
2022-08-18T18:05:21.712Z,29.26
2022-08-18T18:07:53.577Z,29.06
2022-08-18T18:11:03.847Z,29.87
2022-08-18T18:13:42.757Z,29.58
2022-08-18T18:16:29.374Z,29.57
2022-08-18T18:19:06.438Z,29.42
2022-08-18T18:21:53.431Z,29.26
2022-08-18T18:24:35.517Z,28.51
2022-08-18T18:27:27.391Z,28.82
2022-08-18T18:30:07.157Z,28.87
2022-08-18T18:33:06.665Z,28.90
2022-08-18T18:35:54.894Z,28.86
2022-08-18T18:38:54.745Z,28.24
2022-08-18T18:41:36.888Z,28.76
2022-08-18T18:44:10.450Z,28.35
2022-08-18T18:47:24.855Z,28.29
2022-08-18T18:50:31.473Z,28.14
2022-08-18T18:53:15.459Z,28.10
2022-08-18T18:55:57.573Z,27.83
2022-08-18T18:59:35.401Z,27.79
2022-08-18T19:02:44.475Z,27.61
2022-08-18T19:05:23.928Z,27.45
2022-08-18T19:08:33.296Z,27.55
2022-08-18T19:11:30.774Z,27.40
2022-08-18T19:14:07.517Z,27.75
2022-08-18T19:16:42.074Z,27.74
2022-08-18T19:19:37.160Z,27.54
2022-08-18T19:22:22.913Z,27.15
2022-08-18T19:25:01.404Z,27.17
2022-08-18T19:27:40.460Z,27.09
2022-08-18T19:30:13.475Z,27.01
2022-08-18T19:32:46.512Z,27.16
2022-08-18T19:35:21.605Z,26.17
2022-08-18T19:38:14.494Z,26.64
2022-08-18T19:40:48.176Z,27.07
2022-08-18T19:43:30.366Z,26.70
2022-08-18T19:46:12.674Z,26.86
2022-08-18T19:48:53.130Z,27.03
2022-08-18T19:51:34.479Z,26.96
2022-08-18T19:54:27.359Z,26.82
2022-08-18T19:57:14.051Z,26.66
2022-08-18T20:00:14.396Z,26.58
2022-08-18T20:02:56.592Z,26.18
2022-08-18T20:05:55.155Z,26.76
2022-08-18T20:08:32.444Z,26.38
2022-08-18T20:11:41.318Z,26.57
2022-08-18T20:14:16.232Z,26.78
2022-08-18T20:17:12.382Z,27.21
2022-08-18T20:19:52.836Z,27.31
2022-08-18T20:22:22.107Z,27.41
2022-08-18T20:25:05.575Z,27.73
2022-08-18T20:27:36.671Z,27.56
2022-08-18T20:30:08.967Z,27.51
2022-08-18T20:32:37.062Z,27.34
2022-08-18T20:35:21.834Z,27.78
2022-08-18T20:37:49.793Z,27.98
2022-08-18T20:40:43.182Z,27.55
2022-08-18T20:43:30.806Z,27.40
2022-08-18T20:46:16.971Z,27.86
2022-08-18T20:48:51.943Z,27.98
2022-08-18T20:51:24.373Z,28.18
2022-08-18T20:54:09.267Z,28.50
2022-08-18T20:56:50.733Z,28.61
2022-08-18T20:59:29.752Z,28.70
2022-08-18T21:02:25.323Z,28.64
2022-08-18T21:04:57.259Z,28.73
2022-08-18T21:07:37.187Z,28.92
2022-08-18T21:10:19.066Z,28.82
2022-08-18T21:13:00.039Z,28.88
2022-08-18T21:15:36.483Z,28.83
2022-08-18T21:18:22.046Z,29.07
2022-08-18T21:20:52.743Z,28.83
2022-08-18T21:23:29.841Z,29.07
2022-08-18T21:26:07.203Z,29.07
2022-08-18T21:28:37.902Z,28.95
2022-08-18T21:31:28.937Z,28.94
2022-08-18T21:34:00.884Z,29.15
2022-08-18T21:36:34.511Z,28.99
2022-08-18T21:39:11.293Z,28.96
2022-08-18T21:41:42.704Z,29.24
2022-08-18T21:44:41.848Z,29.02
2022-08-18T21:47:20.739Z,28.90
2022-08-18T21:50:14.923Z,28.63
2022-08-18T21:52:56.172Z,28.84
2022-08-18T21:55:33.401Z,28.72
2022-08-18T21:58:17.601Z,28.62
2022-08-18T22:00:47.305Z,28.62
2022-08-18T22:03:22.434Z,28.88
2022-08-18T22:06:17.634Z,29.08
2022-08-18T22:08:55.232Z,28.76
2022-08-18T22:12:01.734Z,28.50
2022-08-18T22:14:55.044Z,28.09
2022-08-18T22:17:27.781Z,28.28
2022-08-18T22:19:56.141Z,27.92
2022-08-18T22:22:42.391Z,28.47
2022-08-18T22:25:12.251Z,28.07
2022-08-18T22:27:40.301Z,27.76
2022-08-18T22:30:08.544Z,28.13
2022-08-18T22:32:38.214Z,28.10
2022-08-18T22:35:07.990Z,27.76
2022-08-18T22:37:50.159Z,28.31
2022-08-18T22:40:21.610Z,28.39
2022-08-18T22:42:50.371Z,28.14
2022-08-18T22:45:18.993Z,27.82
2022-08-18T22:47:46.810Z,27.36
2022-08-18T22:50:15.371Z,27.66
2022-08-18T22:52:47.664Z,26.86
2022-08-18T22:55:23.740Z,27.13
2022-08-18T22:57:56.064Z,27.40
2022-08-18T23:00:26.139Z,27.89
2022-08-18T23:02:55.140Z,27.03
2022-08-18T23:05:23.648Z,27.49
2022-08-18T23:07:52.020Z,27.35
2022-08-18T23:10:20.721Z,27.25
2022-08-18T23:12:48.979Z,27.72
2022-08-18T23:15:18.300Z,27.35
2022-08-18T23:17:46.186Z,27.20
2022-08-18T23:20:17.986Z,26.74
2022-08-18T23:22:48.360Z,26.57
2022-08-18T23:25:16.904Z,26.55
2022-08-18T23:27:44.851Z,26.68
2022-08-18T23:30:14.381Z,26.87
2022-08-18T23:32:43.790Z,26.99
2022-08-18T23:40:18.412Z,27.23
2022-08-18T23:42:49.119Z,26.82
2022-08-18T23:45:17.841Z,26.76
2022-08-18T23:47:45.574Z,27.05
2022-08-18T23:50:13.672Z,27.13
2022-08-18T23:52:41.620Z,27.37
2022-08-18T23:55:12.641Z,27.22
2022-08-18T23:57:41.192Z,27.07
